createdAt,value
2022-10-30T00:01:23.461Z,100758.96
2022-10-30T00:03:51.858Z,100754.45
2022-10-30T00:06:21.371Z,100750.93
2022-10-30T00:08:49.554Z,100746.80
2022-10-30T00:11:17.798Z,100747.20
2022-10-30T00:13:46.235Z,100748.10
2022-10-30T00:16:14.514Z,100743.50
2022-10-30T00:18:43.623Z,100743.19
2022-10-30T00:21:15.019Z,100752.19
2022-10-30T00:23:52.638Z,100750.04
2022-10-30T00:26:23.385Z,100750.30
2022-10-30T00:28:53.017Z,100742.83
2022-10-30T00:31:22.510Z,100745.42
2022-10-30T00:33:52.933Z,100741.57
2022-10-30T00:36:22.495Z,100737.77
2022-10-30T00:38:50.946Z,100732.82
2022-10-30T00:41:23.355Z,100730.47
2022-10-30T00:43:52.342Z,100726.50
2022-10-30T00:46:46.919Z,100721.70
2022-10-30T00:49:18.546Z,100721.90
2022-10-30T00:51:55.334Z,100719.89
2022-10-30T00:54:24.556Z,100724.67
2022-10-30T00:56:54.299Z,100723.56
2022-10-30T00:59:30.288Z,100724.41
2022-10-30T01:01:59.366Z,100726.85
2022-10-30T01:04:30.314Z,100727.42
2022-10-30T01:07:00.652Z,100727.48
2022-10-30T01:09:29.015Z,100726.54
2022-10-30T01:11:58.540Z,100723.04
2022-10-30T01:14:27.074Z,100716.42
2022-10-30T01:16:58.870Z,100707.14
2022-10-30T01:19:34.565Z,100705.52
2022-10-30T01:22:40.738Z,100706.11
2022-10-30T01:25:24.137Z,100706.83
2022-10-30T01:28:04.757Z,100702.29
2022-10-30T01:30:48.338Z,100695.81
2022-10-30T01:33:34.665Z,100689.05
2022-10-30T01:36:21.899Z,100682.76
2022-10-30T01:38:57.554Z,100677.61
2022-10-30T01:41:25.994Z,100676.41
2022-10-30T01:44:02.802Z,100675.55
2022-10-30T01:46:57.305Z,100666.67
2022-10-30T01:49:39.172Z,100672.95
2022-10-30T01:52:26.612Z,100672.31
2022-10-30T01:55:27.193Z,100682.41
2022-10-30T01:58:06.223Z,100688.76
2022-10-30T02:00:34.953Z,100688.00
2022-10-30T02:03:03.998Z,100680.42
2022-10-30T02:05:44.521Z,100680.70
2022-10-30T02:08:14.203Z,100688.27
2022-10-30T02:10:46.863Z,100690.95
2022-10-30T02:13:15.965Z,100700.38
2022-10-30T02:15:45.891Z,100702.73
2022-10-30T02:18:14.206Z,100703.70
2022-10-30T02:20:42.695Z,100705.42
2022-10-30T02:23:17.102Z,100706.95
2022-10-30T02:25:46.326Z,100700.83
2022-10-30T02:28:14.570Z,100702.48
2022-10-30T02:30:44.567Z,100707.64
2022-10-30T02:33:13.154Z,100710.52
2022-10-30T02:35:41.451Z,100707.50
2022-10-30T02:38:09.834Z,100704.04
2022-10-30T02:40:38.070Z,100702.69
2022-10-30T02:43:06.414Z,100702.52
2022-10-30T02:45:34.656Z,100698.80
2022-10-30T02:48:03.395Z,100697.63
2022-10-30T02:50:34.289Z,100700.77
2022-10-30T02:53:02.555Z,100701.30
2022-10-30T02:55:30.776Z,100703.85
2022-10-30T02:57:59.377Z,100709.46
2022-10-30T03:00:27.558Z,100709.17
2022-10-30T03:02:57.201Z,100704.94
2022-10-30T03:05:26.160Z,100708.08
2022-10-30T03:07:55.374Z,100714.89
2022-10-30T03:10:24.073Z,100720.64
2022-10-30T03:12:52.241Z,100725.02
2022-10-30T03:15:20.850Z,100726.38
2022-10-30T03:17:52.713Z,100729.96
2022-10-30T03:20:21.392Z,100733.92
2022-10-30T03:22:49.614Z,100727.02
2022-10-30T03:25:24.153Z,100723.61
2022-10-30T03:27:52.983Z,100719.95
2022-10-30T03:30:21.178Z,100719.41
2022-10-30T03:32:49.423Z,100719.48
2022-10-30T03:35:18.399Z,100722.30
2022-10-30T03:37:46.663Z,100724.04
2022-10-30T03:40:14.842Z,100720.69
2022-10-30T03:42:43.028Z,100712.50
2022-10-30T03:45:11.400Z,100712.11
2022-10-30T03:47:41.292Z,100711.88
2022-10-30T03:50:09.804Z,100704.77
2022-10-30T03:52:37.976Z,100701.00
2022-10-30T03:55:06.974Z,100699.57
2022-10-30T03:57:38.993Z,100702.89
2022-10-30T04:00:08.149Z,100701.42
2022-10-30T04:02:36.491Z,100697.00
2022-10-30T04:05:05.093Z,100692.13
2022-10-30T04:07:33.355Z,100689.14
2022-10-30T04:10:01.588Z,100689.45
2022-10-30T04:12:29.832Z,100694.09
2022-10-30T04:14:58.102Z,100692.06
2022-10-30T04:17:26.391Z,100692.92
2022-10-30T04:19:54.647Z,100699.64
2022-10-30T04:22:22.998Z,100698.39
2022-10-30T04:24:51.405Z,100699.02
2022-10-30T04:27:20.761Z,100696.92
2022-10-30T04:29:49.008Z,100690.73
2022-10-30T04:32:17.153Z,100691.86
2022-10-30T04:34:45.394Z,100687.24
2022-10-30T04:37:13.602Z,100680.77
2022-10-30T04:39:45.481Z,100680.42
2022-10-30T04:42:14.793Z,100686.10
2022-10-30T04:44:43.171Z,100680.71
2022-10-30T04:47:11.425Z,100680.43
2022-10-30T04:49:39.718Z,100675.15
2022-10-30T04:52:08.834Z,100673.79
2022-10-30T04:54:37.323Z,100673.46
2022-10-30T04:57:06.389Z,100674.02
2022-10-30T04:59:34.620Z,100676.98
2022-10-30T05:02:03.018Z,100680.41
2022-10-30T05:04:31.429Z,100685.30
2022-10-30T05:06:59.692Z,100688.20
2022-10-30T05:09:27.913Z,100691.80
2022-10-30T05:11:59.076Z,100694.38
2022-10-30T05:14:32.627Z,100692.20
2022-10-30T05:17:00.797Z,100693.70
2022-10-30T05:19:29.008Z,100695.14
2022-10-30T05:21:57.203Z,100698.33
2022-10-30T05:24:25.457Z,100691.17
2022-10-30T05:26:53.652Z,100683.73
2022-10-30T05:29:21.856Z,100680.69
2022-10-30T05:31:50.133Z,100681.27
2022-10-30T05:34:18.361Z,100683.48
2022-10-30T05:36:46.573Z,100683.14
2022-10-30T05:39:14.763Z,100682.96
2022-10-30T05:41:43.013Z,100682.09
2022-10-30T05:44:11.190Z,100685.73
2022-10-30T05:46:39.508Z,100682.73
2022-10-30T05:49:07.780Z,100682.94
2022-10-30T05:51:38.151Z,100680.30
2022-10-30T05:54:08.988Z,100683.24
2022-10-30T05:56:38.845Z,100685.86
2022-10-30T05:59:07.932Z,100690.63
2022-10-30T06:01:36.333Z,100696.06
2022-10-30T06:04:05.037Z,100700.86
2022-10-30T06:06:33.313Z,100708.96
2022-10-30T06:09:01.755Z,100711.17
2022-10-30T06:11:34.022Z,100713.52
2022-10-30T06:14:05.267Z,100712.73
2022-10-30T06:16:33.555Z,100717.52
2022-10-30T06:19:01.849Z,100716.64
2022-10-30T06:21:30.122Z,100709.87
2022-10-30T06:23:59.315Z,100716.44
2022-10-30T06:26:27.667Z,100721.06
2022-10-30T06:28:56.070Z,100723.09
2022-10-30T06:31:25.158Z,100724.44
2022-10-30T06:33:53.510Z,100720.33
2022-10-30T06:36:21.879Z,100721.25
2022-10-30T06:38:50.250Z,100725.05
2022-10-30T06:41:18.610Z,100729.79
2022-10-30T06:43:46.839Z,100732.14
2022-10-30T06:46:15.183Z,100730.75
2022-10-30T06:48:43.479Z,100730.65
2022-10-30T06:51:15.760Z,100734.27
2022-10-30T06:53:44.116Z,100737.19
2022-10-30T06:56:12.488Z,100743.09
2022-10-30T06:58:41.035Z,100746.80
2022-10-30T07:01:09.398Z,100745.71
2022-10-30T07:03:37.804Z,100735.58
2022-10-30T07:06:06.902Z,100732.80
2022-10-30T07:08:35.179Z,100733.29
2022-10-30T07:11:03.676Z,100735.66
2022-10-30T07:13:32.051Z,100732.98
2022-10-30T07:16:00.395Z,100739.71
2022-10-30T07:18:28.705Z,100742.69
2022-10-30T07:20:57.879Z,100745.29
2022-10-30T07:23:26.149Z,100750.80
2022-10-30T07:25:57.245Z,100754.98
2022-10-30T07:28:27.850Z,100751.73
2022-10-30T07:30:58.257Z,100748.21
2022-10-30T07:33:26.661Z,100750.48
2022-10-30T07:35:54.891Z,100748.63
2022-10-30T07:38:23.249Z,100755.60
2022-10-30T07:40:54.772Z,100762.09
2022-10-30T07:43:23.247Z,100764.14
2022-10-30T07:45:51.688Z,100768.34
2022-10-30T07:48:19.869Z,100774.58
2022-10-30T07:50:48.310Z,100779.47
2022-10-30T07:53:16.806Z,100784.14
2022-10-30T07:55:45.101Z,100782.36
2022-10-30T07:58:13.359Z,100781.31
2022-10-30T08:00:41.992Z,100782.30
2022-10-30T08:03:11.734Z,100780.30
2022-10-30T08:05:40.572Z,100774.46
2022-10-30T08:08:09.421Z,100766.41
2022-10-30T08:10:38.603Z,100761.87
2022-10-30T08:13:06.827Z,100758.23
2022-10-30T08:15:35.083Z,100757.41
2022-10-30T08:18:03.401Z,100749.91
2022-10-30T08:20:31.789Z,100747.11
2022-10-30T08:23:01.939Z,100745.44
2022-10-30T08:25:31.543Z,100737.20
2022-10-30T08:28:06.111Z,100732.39
2022-10-30T08:30:36.341Z,100735.06
2022-10-30T08:33:08.123Z,100735.33
2022-10-30T08:38:09.279Z,100733.92
2022-10-30T08:40:37.588Z,100734.31
2022-10-30T08:43:05.772Z,100733.06
2022-10-30T08:45:34.231Z,100731.16
2022-10-30T08:48:05.419Z,100733.65
2022-10-30T08:50:36.889Z,100732.77
2022-10-30T08:53:08.414Z,100732.23
2022-10-30T08:55:37.481Z,100731.63
2022-10-30T08:58:05.796Z,100733.34
2022-10-30T09:00:34.657Z,100735.55
2022-10-30T09:03:03.616Z,100734.33
2022-10-30T09:05:32.523Z,100735.46
2022-10-30T09:08:01.707Z,100732.07
2022-10-30T09:10:30.955Z,100732.18
2022-10-30T09:13:00.378Z,100737.53
2022-10-30T09:15:29.304Z,100741.27
2022-10-30T09:18:06.512Z,100740.56
2022-10-30T09:20:34.833Z,100743.27
2022-10-30T09:23:03.493Z,100742.51
2022-10-30T09:25:32.042Z,100742.61
2022-10-30T09:28:00.304Z,100743.52
2022-10-30T09:30:28.759Z,100739.96
2022-10-30T09:32:59.422Z,100740.19
2022-10-30T09:35:29.059Z,100734.15
2022-10-30T09:37:57.888Z,100732.10
2022-10-30T09:40:40.665Z,100730.54
2022-10-30T09:43:35.064Z,100730.20
2022-10-30T09:46:41.721Z,100727.44
2022-10-30T09:49:21.312Z,100728.34
2022-10-30T09:56:06.797Z,100726.43
2022-10-30T09:59:09.033Z,100726.38
2022-10-30T10:01:37.539Z,100727.45
2022-10-30T10:04:22.409Z,100728.86
2022-10-30T10:07:00.773Z,100724.88
2022-10-30T10:09:33.023Z,100723.23
2022-10-30T10:12:25.284Z,100723.09
2022-10-30T10:14:56.924Z,100718.40
2022-10-30T10:20:26.275Z,100719.34
2022-10-30T10:22:58.062Z,100713.48
2022-10-30T10:25:30.812Z,100714.94
2022-10-30T10:28:17.158Z,100706.52
2022-10-30T10:31:11.122Z,100707.38
2022-10-30T10:34:34.136Z,100704.75
2022-10-30T10:37:28.869Z,100696.98
2022-10-30T10:40:17.254Z,100698.56
2022-10-30T10:43:02.392Z,100693.60
2022-10-30T10:45:49.241Z,100690.04
2022-10-30T10:48:47.537Z,100683.45
2022-10-30T10:51:25.169Z,100675.67
2022-10-30T10:54:13.042Z,100677.39
2022-10-30T10:56:45.357Z,100674.83
2022-10-30T10:59:27.191Z,100676.39
2022-10-30T11:02:32.364Z,100674.72
2022-10-30T11:05:17.594Z,100674.79
2022-10-30T11:07:50.778Z,100670.39
2022-10-30T11:10:20.888Z,100670.27
2022-10-30T11:12:49.724Z,100667.04
2022-10-30T11:15:44.037Z,100662.66
2022-10-30T11:18:12.407Z,100661.28
2022-10-30T11:20:49.166Z,100660.41
2022-10-30T11:23:40.619Z,100653.47
2022-10-30T11:26:17.794Z,100654.27
2022-10-30T11:29:06.156Z,100648.48
2022-10-30T11:31:40.668Z,100644.59
2022-10-30T11:34:24.583Z,100640.54
2022-10-30T11:36:53.712Z,100640.17
2022-10-30T11:39:24.978Z,100639.02
2022-10-30T11:42:18.042Z,100635.58
2022-10-30T11:44:52.208Z,100638.67
2022-10-30T11:47:29.826Z,100639.27
2022-10-30T11:50:06.242Z,100636.58
2022-10-30T11:52:42.255Z,100637.85
2022-10-30T11:55:39.642Z,100641.47
2022-10-30T11:58:11.932Z,100641.66
2022-10-30T12:00:46.151Z,100643.09
2022-10-30T12:03:39.265Z,100644.16
2022-10-30T12:06:29.296Z,100642.95
2022-10-30T12:09:03.301Z,100643.98
2022-10-30T12:11:34.813Z,100646.47
2022-10-30T12:14:04.038Z,100644.02
2022-10-30T12:16:34.135Z,100646.41
2022-10-30T12:19:09.112Z,100646.40
2022-10-30T12:21:41.667Z,100646.81
2022-10-30T12:27:38.836Z,100639.89
2022-10-30T12:30:17.514Z,100640.53
2022-10-30T12:33:01.161Z,100643.29
2022-10-30T12:35:53.312Z,100641.69
2022-10-30T12:38:38.463Z,100641.10
2022-10-30T12:41:26.345Z,100638.90
2022-10-30T12:44:32.253Z,100639.08
2022-10-30T12:47:08.881Z,100638.65
2022-10-30T12:49:41.323Z,100640.20
2022-10-30T12:52:54.320Z,100635.49
2022-10-30T12:55:28.099Z,100628.93
2022-10-30T12:58:18.327Z,100631.49
2022-10-30T13:01:03.624Z,100627.23
2022-10-30T13:03:39.670Z,100625.13
2022-10-30T13:06:12.843Z,100626.11
2022-10-30T13:09:02.360Z,100624.34
2022-10-30T13:11:43.564Z,100625.64
2022-10-30T13:14:19.740Z,100625.94
2022-10-30T13:16:48.164Z,100621.33
2022-10-30T13:19:16.484Z,100616.05
2022-10-30T13:21:47.419Z,100616.36
2022-10-30T13:24:37.568Z,100616.16
2022-10-30T13:27:25.515Z,100618.86
2022-10-30T13:30:21.695Z,100616.64
2022-10-30T13:33:16.859Z,100614.70
2022-10-30T13:36:00.483Z,100613.11
2022-10-30T13:38:56.897Z,100616.48
2022-10-30T13:41:39.606Z,100611.77
2022-10-30T13:44:29.729Z,100609.86
2022-10-30T13:47:22.506Z,100609.42
2022-10-30T13:52:58.081Z,100602.13
2022-10-30T13:55:30.342Z,100599.60
2022-10-30T13:58:10.942Z,100599.77
2022-10-30T14:01:07.519Z,100601.48
2022-10-30T14:03:46.854Z,100600.57
2022-10-30T14:06:34.032Z,100604.38
2022-10-30T14:09:43.610Z,100606.23
2022-10-30T14:12:49.353Z,100611.17
2022-10-30T14:15:32.742Z,100607.58
2022-10-30T14:18:13.125Z,100607.20
2022-10-30T14:20:56.509Z,100605.21
2022-10-30T14:23:38.140Z,100601.85
2022-10-30T14:26:06.372Z,100595.67
2022-10-30T14:28:40.296Z,100597.54
2022-10-30T14:31:17.270Z,100595.14
2022-10-30T14:33:56.052Z,100594.02
2022-10-30T14:36:50.475Z,100591.78
2022-10-30T14:39:18.668Z,100590.39
2022-10-30T14:42:05.591Z,100588.68
2022-10-30T14:44:52.793Z,100588.19
2022-10-30T14:47:48.888Z,100587.07
2022-10-30T14:50:17.178Z,100582.52
2022-10-30T14:53:22.483Z,100580.46
2022-10-30T14:56:12.901Z,100572.73
2022-10-30T14:58:41.707Z,100577.16
2022-10-30T15:01:09.927Z,100578.13
2022-10-30T15:03:43.857Z,100574.80
2022-10-30T15:06:51.238Z,100575.71
2022-10-30T15:09:53.228Z,100571.95
2022-10-30T15:12:43.099Z,100571.64
2022-10-30T15:15:17.544Z,100574.13
2022-10-30T15:17:52.022Z,100577.52
2022-10-30T15:20:26.492Z,100578.67
2022-10-30T15:22:58.601Z,100575.06
2022-10-30T15:25:33.890Z,100575.55
2022-10-30T15:28:02.997Z,100576.95
2022-10-30T15:30:31.422Z,100583.17
2022-10-30T15:33:00.069Z,100583.42
2022-10-30T15:35:29.740Z,100582.79
2022-10-30T15:38:03.123Z,100582.23
2022-10-30T15:40:31.734Z,100580.20
2022-10-30T15:43:03.475Z,100583.20
2022-10-30T15:45:41.740Z,100587.73
2022-10-30T15:48:28.383Z,100590.61
2022-10-30T15:51:02.036Z,100592.30
2022-10-30T15:53:39.201Z,100594.57
2022-10-30T15:56:18.222Z,100596.50
2022-10-30T15:58:59.370Z,100597.92
2022-10-30T16:01:32.300Z,100595.91
2022-10-30T16:04:01.519Z,100590.91
2022-10-30T16:06:34.419Z,100593.52
2022-10-30T16:09:04.820Z,100592.83
2022-10-30T16:11:33.722Z,100592.91
2022-10-30T16:14:09.788Z,100591.69
2022-10-30T16:16:38.423Z,100586.59
2022-10-30T16:19:07.523Z,100586.30
2022-10-30T16:21:37.719Z,100586.67
2022-10-30T16:24:06.549Z,100587.59
2022-10-30T16:26:39.324Z,100587.52
2022-10-30T16:29:13.670Z,100595.48
2022-10-30T16:31:44.161Z,100595.75
2022-10-30T16:34:26.896Z,100595.34
2022-10-30T16:36:57.263Z,100593.48
2022-10-30T16:39:26.642Z,100586.23
2022-10-30T16:42:03.163Z,100586.64
2022-10-30T16:44:36.262Z,100588.52
2022-10-30T16:47:17.353Z,100586.82
2022-10-30T16:49:50.435Z,100586.16
2022-10-30T16:52:24.753Z,100587.82
2022-10-30T16:55:25.374Z,100589.29
2022-10-30T16:57:58.040Z,100583.98
2022-10-30T17:00:36.684Z,100586.53
2022-10-30T17:03:11.306Z,100586.01
2022-10-30T17:05:43.952Z,100584.93
2022-10-30T17:08:17.803Z,100580.66
2022-10-30T17:11:07.990Z,100584.52
2022-10-30T17:13:44.578Z,100585.75
2022-10-30T17:16:23.434Z,100584.08
2022-10-30T17:18:55.226Z,100584.86
2022-10-30T17:21:40.883Z,100586.75
2022-10-30T17:24:22.687Z,100594.58
2022-10-30T17:27:32.176Z,100594.23
2022-10-30T17:30:00.999Z,100589.44
2022-10-30T17:32:46.110Z,100591.59
2022-10-30T17:35:18.698Z,100588.95
2022-10-30T17:37:47.147Z,100591.24
2022-10-30T17:40:17.008Z,100594.42
2022-10-30T17:42:46.061Z,100592.90
2022-10-30T17:45:16.976Z,100595.80
2022-10-30T17:47:46.288Z,100598.00
2022-10-30T17:50:14.726Z,100597.45
2022-10-30T17:52:44.445Z,100599.38
2022-10-30T17:55:30.326Z,100599.54
2022-10-30T17:57:58.783Z,100600.73
2022-10-30T18:00:27.285Z,100599.99
2022-10-30T18:02:56.071Z,100601.27
2022-10-30T18:05:29.262Z,100602.32
2022-10-30T18:07:58.927Z,100600.90
2022-10-30T18:10:28.346Z,100604.04
2022-10-30T18:12:58.247Z,100605.47
2022-10-30T18:15:33.145Z,100607.52
2022-10-30T18:18:04.527Z,100611.30
2022-10-30T18:20:34.768Z,100611.20
2022-10-30T18:23:04.245Z,100613.84
2022-10-30T18:25:36.739Z,100611.30
2022-10-30T18:28:08.792Z,100611.41
2022-10-30T18:30:38.190Z,100610.36
2022-10-30T18:33:09.588Z,100603.31
2022-10-30T18:35:40.068Z,100604.72
2022-10-30T18:38:09.658Z,100599.70
2022-10-30T18:40:39.695Z,100597.75
2022-10-30T18:43:12.436Z,100602.05
2022-10-30T18:45:42.706Z,100601.52
2022-10-30T18:48:12.765Z,100599.00
2022-10-30T18:50:43.875Z,100597.77
2022-10-30T18:53:20.496Z,100595.92
2022-10-30T18:55:50.388Z,100594.54
2022-10-30T18:58:20.957Z,100594.91
2022-10-30T19:03:43.774Z,100591.98
2022-10-30T19:06:24.706Z,100590.85
2022-10-30T19:08:54.577Z,100584.95
2022-10-30T19:11:25.478Z,100581.60
2022-10-30T19:13:55.430Z,100578.21
2022-10-30T19:16:27.435Z,100578.27
2022-10-30T19:18:57.312Z,100573.02
2022-10-30T19:21:26.912Z,100574.34
2022-10-30T19:23:58.251Z,100573.15
2022-10-30T19:26:28.753Z,100565.85
2022-10-30T19:28:57.575Z,100567.45
2022-10-30T19:31:26.303Z,100566.39
2022-10-30T19:33:58.353Z,100564.92
2022-10-30T19:36:34.321Z,100571.17
2022-10-30T19:39:12.787Z,100572.02
2022-10-30T19:41:42.822Z,100569.18
2022-10-30T19:44:12.199Z,100569.46
2022-10-30T19:46:43.577Z,100569.30
2022-10-30T19:49:18.879Z,100573.49
2022-10-30T19:51:49.002Z,100570.05
2022-10-30T19:54:19.683Z,100570.78
2022-10-30T19:56:49.229Z,100570.41
2022-10-30T19:59:21.414Z,100574.07
2022-10-30T20:01:50.673Z,100578.35
2022-10-30T20:04:21.311Z,100580.48
2022-10-30T20:06:50.636Z,100580.88
2022-10-30T20:09:35.564Z,100580.11
2022-10-30T20:12:04.833Z,100580.25
2022-10-30T20:14:34.372Z,100579.20
2022-10-30T20:17:03.339Z,100583.23
2022-10-30T20:19:35.492Z,100584.34
2022-10-30T20:22:04.889Z,100579.88
2022-10-30T20:24:34.134Z,100576.92
2022-10-30T20:27:03.185Z,100575.23
2022-10-30T20:29:32.368Z,100573.81
2022-10-30T20:32:01.214Z,100577.85
2022-10-30T20:34:29.910Z,100576.42
2022-10-30T20:36:58.549Z,100576.66
2022-10-30T20:39:27.935Z,100580.30
2022-10-30T20:41:57.169Z,100582.39
2022-10-30T20:44:26.104Z,100583.08
2022-10-30T20:46:57.679Z,100584.14
2022-10-30T20:49:26.196Z,100585.66
2022-10-30T20:51:54.625Z,100584.69
2022-10-30T20:54:23.930Z,100582.23
2022-10-30T20:56:53.606Z,100584.15
2022-10-30T20:59:23.680Z,100582.40
2022-10-30T21:01:52.601Z,100585.14
2022-10-30T21:04:21.494Z,100588.01
2022-10-30T21:06:50.807Z,100589.17
2022-10-30T21:09:19.208Z,100591.89
2022-10-30T21:11:47.908Z,100589.64
2022-10-30T21:14:16.553Z,100586.80
2022-10-30T21:16:45.754Z,100587.01
2022-10-30T21:19:15.144Z,100587.59
2022-10-30T21:21:43.530Z,100583.03
2022-10-30T21:24:11.834Z,100583.32
2022-10-30T21:26:40.189Z,100583.79
2022-10-30T21:29:09.367Z,100581.55
2022-10-30T21:31:37.751Z,100574.90
2022-10-30T21:34:06.098Z,100570.39
2022-10-30T21:36:34.468Z,100570.73
2022-10-30T21:39:03.228Z,100572.35
2022-10-30T21:41:32.006Z,100569.14
2022-10-30T21:44:01.112Z,100573.09
2022-10-30T21:46:31.598Z,100572.72
2022-10-30T21:49:05.833Z,100574.84
2022-10-30T21:51:34.331Z,100577.50
2022-10-30T21:54:02.516Z,100579.49
2022-10-30T21:56:30.839Z,100578.27
2022-10-30T21:59:00.813Z,100582.03
2022-10-30T22:01:30.854Z,100577.81
2022-10-30T22:04:00.603Z,100575.04
2022-10-30T22:06:29.210Z,100578.05
2022-10-30T22:08:58.685Z,100578.44
2022-10-30T22:11:29.461Z,100579.36
2022-10-30T22:14:00.405Z,100576.37
2022-10-30T22:16:30.499Z,100579.08
2022-10-30T22:18:58.816Z,100582.76
2022-10-30T22:21:28.332Z,100580.68
2022-10-30T22:23:59.107Z,100581.73
2022-10-30T22:26:27.968Z,100580.78
2022-10-30T22:28:58.595Z,100578.04
2022-10-30T22:31:29.331Z,100581.90
2022-10-30T22:33:59.634Z,100586.98
2022-10-30T22:36:32.694Z,100593.92
2022-10-30T22:39:07.881Z,100592.63
2022-10-30T22:41:37.951Z,100597.31
2022-10-30T22:44:08.920Z,100591.88
2022-10-30T22:46:38.107Z,100591.48
2022-10-30T22:49:07.587Z,100592.21
2022-10-30T22:51:39.762Z,100593.38
2022-10-30T22:54:12.756Z,100592.15
2022-10-30T22:56:41.723Z,100592.95
2022-10-30T22:59:14.376Z,100594.67
2022-10-30T23:01:43.443Z,100599.17
2022-10-30T23:04:14.364Z,100601.70
2022-10-30T23:06:43.715Z,100603.41
2022-10-30T23:09:23.616Z,100606.86
2022-10-30T23:11:51.848Z,100606.80
2022-10-30T23:14:20.094Z,100604.17
2022-10-30T23:16:48.379Z,100602.07
2022-10-30T23:19:16.712Z,100601.35
2022-10-30T23:21:45.041Z,100600.65
2022-10-30T23:24:13.405Z,100605.36
2022-10-30T23:26:41.682Z,100605.58
2022-10-30T23:29:09.933Z,100608.04
2022-10-30T23:31:40.989Z,100615.71
2022-10-30T23:34:12.705Z,100618.21
2022-10-30T23:36:41.947Z,100617.84
2022-10-30T23:39:14.382Z,100618.63
2022-10-30T23:41:43.262Z,100616.36
2022-10-30T23:44:13.765Z,100615.48
2022-10-30T23:46:42.584Z,100614.29
2022-10-30T23:49:10.865Z,100615.66
2022-10-30T23:51:39.174Z,100618.13
2022-10-30T23:54:07.606Z,100614.39
2022-10-30T23:56:35.989Z,100614.23
2022-10-30T23:59:04.950Z,100613.08
